Time;durP1;ratioP1;P1;durP2;ratioP2;P2;SDS_P1;SDS_P2;PMS_P1;PMS_P2;Temp;Humidity;BMP_temperature;BMP_pressure;BME280_temperature;BME280_humidity;BME280_pressure;Samples;Min_cycle;Max_cycle;Signal;HPM_P1;HPM_P2
2023/01/25 00:00:04;;;;;;;;;53.75;43.00;;;;;6.70;63.56;102919.91;2072723;27;46627;-62
2023/01/25 00:01:05;;;;;;;;;55.00;44.60;;;;;6.68;63.53;102916.34;2077481;27;46783;-64
2023/01/25 00:02:06;;;;;;;;;50.20;42.40;;;;;6.68;63.10;102926.91;2082597;27;46372;-64
2023/01/25 00:03:06;;;;;;;;;48.75;41.75;;;;;6.67;63.33;102918.94;2076411;27;46831;-64
2023/01/25 00:04:07;;;;;;;;;56.75;45.75;;;;;6.67;63.50;102924.22;2088568;27;46641;-64
2023/01/25 00:05:08;;;;;;;;;57.00;46.00;;;;;6.66;63.63;102914.50;2084825;27;46102;-65
2023/01/25 00:06:08;;;;;;;;;51.50;42.00;;;;;6.65;63.55;102913.63;2077761;27;46440;-64
2023/01/25 00:07:08;;;;;;;;;53.00;42.75;;;;;6.66;63.69;102914.50;2081104;27;46069;-65
2023/01/25 00:08:09;;;;;;;;;53.25;43.00;;;;;6.65;63.34;102910.97;2077819;27;46615;-63
2023/01/25 00:09:10;;;;;;;;;54.00;43.00;;;;;6.65;63.38;102912.72;2081298;27;45981;-64
2023/01/25 00:10:10;;;;;;;;;54.60;45.20;;;;;6.65;63.54;102910.09;2081021;27;45887;-64
2023/01/25 00:11:11;;;;;;;;;58.50;46.50;;;;;6.65;63.80;102913.63;2078194;28;46510;-64
2023/01/25 00:12:11;;;;;;;;;51.00;43.25;;;;;6.64;63.83;102909.19;2079804;27;46638;-63
2023/01/25 00:13:11;;;;;;;;;53.50;42.50;;;;;6.66;63.76;102911.88;2077987;28;46339;-64
2023/01/25 00:14:13;;;;;;;;;56.50;40.75;;;;;6.66;63.41;102919.78;2069310;28;46559;-64
2023/01/25 00:15:14;;;;;;;;;45.80;39.60;;;;;6.65;63.48;102916.25;2059195;28;46740;-64
2023/01/25 00:16:14;;;;;;;;;49.75;41.75;;;;;6.65;63.58;102908.34;2060872;28;45689;-65
2023/01/25 00:17:15;;;;;;;;;53.25;42.75;;;;;6.64;63.59;102909.19;2079760;27;46489;-62
2023/01/25 00:18:15;;;;;;;;;51.00;41.25;;;;;6.63;63.44;102907.41;2080342;27;46212;-64
2023/01/25 00:19:15;;;;;;;;;50.75;42.00;;;;;6.63;63.04;102910.06;2078262;28;45211;-64
2023/01/25 00:20:16;;;;;;;;;52.25;42.25;;;;;6.60;63.50;102904.66;2068420;28;46419;-64
2023/01/25 00:21:20;;;;;;;;;50.50;43.00;;;;;6.61;63.68;102913.50;2061493;28;46523;-64
2023/01/25 00:22:20;;;;;;;;;53.60;43.80;;;;;6.59;63.58;102910.78;2061650;28;45289;-64
2023/01/25 00:23:20;;;;;;;;;51.25;41.25;;;;;6.57;63.66;102904.56;2091463;27;46231;-63
2023/01/25 00:24:24;;;;;;;;;51.25;42.25;;;;;6.58;63.60;102911.63;2112928;27;46326;-66
2023/01/25 00:25:24;;;;;;;;;52.00;41.20;;;;;6.56;63.73;102905.44;2112789;27;45770;-64
2023/01/25 00:26:25;;;;;;;;;54.50;45.00;;;;;6.56;63.79;102905.44;2096613;27;46332;-61
2023/01/25 00:27:26;;;;;;;;;54.75;42.75;;;;;6.57;63.38;102906.31;2076185;28;46112;-63
2023/01/25 00:28:26;;;;;;;;;54.75;44.00;;;;;6.55;63.83;102905.38;2065751;28;46295;-64
2023/01/25 00:29:26;;;;;;;;;50.25;41.00;;;;;6.54;63.83;102909.75;2064374;28;46495;-64
2023/01/25 00:30:27;;;;;;;;;51.75;41.75;;;;;6.53;63.55;102905.34;2067186;27;46279;-63
2023/01/25 00:31:33;;;;;;;;;50.25;41.00;;;;;6.54;63.51;102906.22;2069952;28;46541;-61
2023/01/25 00:32:45;;;;;;;;;48.80;40.60;;;;;6.54;63.85;102906.22;2069198;28;46783;-64
2023/01/25 00:34:00;;;;;;;;;52.80;41.00;;;;;6.53;63.67;102901.81;2064967;27;46362;-62
2023/01/25 00:35:01;;;;;;;;;50.40;41.40;;;;;6.53;63.53;102905.34;2053096;28;46775;-63
2023/01/25 00:36:02;;;;;;;;;54.50;45.50;;;;;6.54;63.93;102907.13;2059347;28;46590;-62
2023/01/25 00:37:12;;;;;;;;;50.80;40.60;;;;;6.54;63.93;102896.56;2061781;28;46262;-63
2023/01/25 00:38:28;;;;;;;;;45.60;40.20;;;;;6.56;63.80;102904.53;2066972;27;46301;-63
2023/01/25 00:39:29;;;;;;;;;51.40;40.40;;;;;6.57;63.98;102898.41;2064716;28;46703;-62
2023/01/25 00:40:29;;;;;;;;;48.25;42.25;;;;;6.58;63.99;102909.00;2061959;28;46812;-62
2023/01/25 00:41:30;;;;;;;;;46.75;40.00;;;;;6.59;63.69;102907.25;2071065;28;46167;-61
2023/01/25 00:42:30;;;;;;;;;48.50;42.75;;;;;6.60;63.64;102909.94;2070364;28;46275;-62
2023/01/25 00:43:31;;;;;;;;;55.50;45.00;;;;;6.60;63.78;102904.66;2070921;28;46105;-62
2023/01/25 00:44:31;;;;;;;;;48.75;40.50;;;;;6.60;63.88;102903.75;2070659;27;46622;-65
2023/01/25 00:45:32;;;;;;;;;53.25;41.75;;;;;6.60;63.27;102909.03;2071039;27;46629;-64
2023/01/25 00:46:32;;;;;;;;;45.25;39.75;;;;;6.57;63.28;102904.56;2070954;28;46592;-63
2023/01/25 00:47:32;;;;;;;;;50.50;40.00;;;;;6.57;63.53;102904.56;2071247;28;45539;-63
2023/01/25 00:48:33;;;;;;;;;51.00;41.50;;;;;6.55;63.26;102898.38;2070927;27;46705;-62
2023/01/25 00:49:33;;;;;;;;;43.00;36.25;;;;;6.54;63.48;102900.97;2071202;28;46457;-63
2023/01/25 00:50:36;;;;;;;;;48.00;41.25;;;;;6.52;63.56;102898.28;2070800;28;46238;-63
2023/01/25 00:51:36;;;;;;;;;49.00;42.20;;;;;6.52;63.73;102902.66;2071260;28;46351;-63
2023/01/25 00:52:36;;;;;;;;;43.50;37.50;;;;;6.51;63.33;102903.50;2071248;28;46083;-63
2023/01/25 00:53:37;;;;;;;;;50.00;40.25;;;;;6.52;63.73;102905.31;2071029;28;45943;-63
2023/01/25 00:54:37;;;;;;;;;53.50;41.25;;;;;6.52;63.51;102907.94;2070806;28;46371;-63
2023/01/25 00:55:38;;;;;;;;;48.25;41.50;;;;;6.51;63.70;102899.13;2071526;28;46653;-63
2023/01/25 00:56:38;;;;;;;;;46.50;40.00;;;;;6.51;63.45;102899.13;2071221;28;46236;-63
2023/01/25 00:57:38;;;;;;;;;48.50;39.50;;;;;6.51;63.38;102900.88;2063193;28;46557;-63
2023/01/25 00:58:42;;;;;;;;;52.00;43.25;;;;;6.49;63.62;102901.72;2062636;28;46081;-61
2023/01/25 00:59:43;;;;;;;;;55.20;44.40;;;;;6.49;63.64;102896.44;2063045;28;46958;-62
2023/01/25 01:00:43;;;;;;;;;51.00;42.00;;;;;6.49;63.46;102892.91;2068891;27;46785;-62
2023/01/25 01:01:44;;;;;;;;;55.50;42.50;;;;;6.47;63.62;102897.22;2070717;28;46669;-63
2023/01/25 01:02:44;;;;;;;;;49.00;42.25;;;;;6.47;63.57;102895.47;2071277;28;45600;-63
2023/01/25 01:03:44;;;;;;;;;53.75;43.75;;;;;6.47;63.63;102892.84;2075869;27;46219;-63
2023/01/25 01:04:45;;;;;;;;;46.75;39.25;;;;;6.47;63.84;102892.84;2071049;28;46516;-63
2023/01/25 01:05:45;;;;;;;;;49.25;41.50;;;;;6.47;63.62;102900.75;2068284;28;46563;-62
2023/01/25 01:06:46;;;;;;;;;56.25;44.00;;;;;6.49;63.80;102898.19;2069466;28;45567;-62
2023/01/25 01:07:48;;;;;;;;;49.00;42.00;;;;;6.51;63.79;102900.88;2071513;28;46056;-63
2023/01/25 01:08:48;;;;;;;;;48.60;39.00;;;;;6.49;63.34;102891.19;2070946;27;46435;-63
2023/01/25 01:09:49;;;;;;;;;55.00;44.50;;;;;6.49;63.68;102890.28;2070693;27;46932;-62
2023/01/25 01:10:49;;;;;;;;;48.50;41.75;;;;;6.51;63.70;102885.06;2070869;27;45574;-63
2023/01/25 01:11:50;;;;;;;;;52.25;40.75;;;;;6.50;63.51;102886.78;2070926;27;46601;-62
2023/01/25 01:12:50;;;;;;;;;52.25;43.50;;;;;6.49;63.57;102888.53;2071143;28;46523;-62
2023/01/25 01:13:50;;;;;;;;;52.50;42.25;;;;;6.50;63.88;102892.06;2070611;28;45897;-63
2023/01/25 01:14:51;;;;;;;;;53.00;42.25;;;;;6.49;63.62;102890.28;2071449;28;46227;-62
2023/01/25 01:15:51;;;;;;;;;47.25;40.75;;;;;6.49;63.70;102891.19;2070790;28;46299;-63
2023/01/25 01:16:51;;;;;;;;;48.25;39.50;;;;;6.49;63.54;102896.44;2066999;28;45202;-63
2023/01/25 01:17:52;;;;;;;;;56.50;44.25;;;;;6.48;63.74;102894.66;2062865;28;46681;-63
2023/01/25 01:18:52;;;;;;;;;48.75;40.50;;;;;6.47;63.61;102890.22;2063119;28;45021;-63
2023/01/25 01:19:52;;;;;;;;;54.75;43.50;;;;;6.51;63.77;102885.94;2064759;28;46594;-63
2023/01/25 01:20:53;;;;;;;;;52.25;40.25;;;;;6.51;63.78;102891.22;2070815;28;46323;-65
2023/01/25 01:21:54;;;;;;;;;58.80;46.40;;;;;6.49;63.49;102885.91;2070430;28;46371;-63
2023/01/25 01:22:54;;;;;;;;;54.75;46.00;;;;;6.51;63.77;102890.31;2070757;28;46486;-63
2023/01/25 01:23:55;;;;;;;;;54.50;42.25;;;;;6.51;63.75;102882.41;2070782;27;46568;-64
2023/01/25 01:24:55;;;;;;;;;52.50;42.25;;;;;6.50;63.54;102892.06;2070683;28;46300;-63
2023/01/25 01:25:59;;;;;;;;;54.50;42.50;;;;;6.48;63.98;102892.03;2070569;28;46077;-64
2023/01/25 01:26:59;;;;;;;;;46.40;41.00;;;;;6.47;63.51;102884.03;2070749;28;46193;-64
2023/01/25 01:27:59;;;;;;;;;52.50;41.00;;;;;6.46;63.56;102887.53;2070976;28;46555;-64
2023/01/25 01:29:00;;;;;;;;;53.75;42.75;;;;;6.45;63.46;102888.38;2069771;27;46532;-64
2023/01/25 01:30:00;;;;;;;;;50.75;41.50;;;;;6.45;63.71;102888.38;2069744;28;46351;-63
2023/01/25 01:31:03;;;;;;;;;46.25;39.75;;;;;6.44;63.32;102894.50;2070907;28;45145;-64
2023/01/25 01:32:03;;;;;;;;;51.40;42.00;;;;;6.44;63.76;102891.88;2070739;28;47037;-64
2023/01/25 01:33:04;;;;;;;;;59.00;46.75;;;;;6.43;63.70;102890.09;2066076;28;46729;-64
2023/01/25 01:34:04;;;;;;;;;52.25;44.75;;;;;6.43;63.74;102890.97;2053878;28;46132;-63
2023/01/25 01:35:05;;;;;;;;;54.00;43.25;;;;;6.42;63.73;102889.19;2062025;28;45038;-62
2023/01/25 01:36:11;;;;;;;;;56.75;44.50;;;;;6.42;63.60;102889.19;2065788;28;46752;-63
2023/01/25 01:37:11;;;;;;;;;50.80;41.40;;;;;6.41;63.80;102897.94;2070629;28;47045;-62
2023/01/25 01:38:12;;;;;;;;;51.75;43.00;;;;;6.41;63.85;102894.41;2063601;28;46419;-63
2023/01/25 01:39:12;;;;;;;;;52.25;42.50;;;;;6.40;63.85;102890.00;2064840;28;46245;-63
2023/01/25 01:40:15;;;;;;;;;56.25;43.00;;;;;6.41;64.01;102891.78;2070652;27;45925;-64
2023/01/25 01:41:16;;;;;;;;;50.20;41.00;;;;;6.41;63.84;102891.78;2070663;27;46718;-63
2023/01/25 01:42:16;;;;;;;;;47.00;39.00;;;;;6.40;63.40;102888.25;2070749;28;45692;-63
2023/01/25 01:43:22;;;;;;;;;47.25;38.75;;;;;6.39;63.96;102886.47;2071288;28;45607;-64
2023/01/25 01:44:43;;;;;;;;;50.80;40.80;;;;;6.38;63.88;102896.97;2070553;28;45995;-62
2023/01/25 01:45:47;;;;;;;;;54.20;45.40;;;;;6.38;64.05;102891.69;2066489;28;46713;-62
2023/01/25 01:46:55;;;;;;;;;56.00;43.40;;;;;6.39;63.68;102901.41;2062770;28;46441;-62
2023/01/25 01:47:55;;;;;;;;;49.40;41.60;;;;;6.37;63.79;102890.81;2078836;27;46924;-62
2023/01/25 01:49:10;;;;;;;;;50.75;40.00;;;;;6.37;64.06;102895.19;2078779;28;46300;-63
2023/01/25 01:50:22;;;;;;;;;54.00;43.80;;;;;6.38;63.54;102896.97;2079912;27;46494;-63
2023/01/25 01:51:44;;;;;;;;;57.60;45.60;;;;;6.39;64.04;102898.75;2062348;28;46423;-62
2023/01/25 01:52:45;;;;;;;;;52.00;41.00;;;;;6.40;64.13;102905.81;2077904;27;46607;-63
2023/01/25 01:53:51;;;;;;;;;55.00;44.75;;;;;6.40;64.09;102903.19;2075258;27;46694;-63
2023/01/25 01:55:07;;;;;;;;;54.20;42.80;;;;;6.40;63.69;102901.44;2066214;28;45757;-63
2023/01/25 01:56:12;;;;;;;;;54.20;42.60;;;;;6.40;63.99;102892.63;2053109;28;46955;-63
2023/01/25 01:57:43;;;;;;;;;54.20;43.40;;;;;6.40;64.06;102895.28;2075544;27;46860;-63
2023/01/25 01:58:45;;;;;;;;;50.00;42.00;;;;;6.40;64.11;102904.06;2073160;27;46611;-63
2023/01/25 01:59:51;;;;;;;;;51.20;41.40;;;;;6.40;63.84;102904.06;2070867;28;46860;-63
2023/01/25 02:00:52;;;;;;;;;52.00;42.00;;;;;6.40;63.62;102903.19;2110047;27;45703;-63
2023/01/25 02:01:53;;;;;;;;;50.50;42.00;;;;;6.39;63.68;102899.66;2099812;27;46973;-64
2023/01/25 02:02:54;;;;;;;;;49.40;41.80;;;;;6.38;63.97;102897.88;2070560;27;46152;-64
2023/01/25 02:03:55;;;;;;;;;57.40;46.20;;;;;6.39;64.15;102898.75;2103998;27;46441;-64
2023/01/25 02:04:59;;;;;;;;;52.00;43.50;;;;;6.41;64.07;102902.34;2083135;27;46874;-63
2023/01/25 02:06:14;;;;;;;;;57.80;45.80;;;;;6.40;64.17;102900.53;2113767;27;45790;-63
2023/01/25 02:07:33;;;;;;;;;51.40;42.20;;;;;6.39;64.12;102904.03;2110067;27;46791;-63
2023/01/25 02:08:35;;;;;;;;;56.40;46.60;;;;;6.38;63.94;102911.06;2110359;27;46886;-63
2023/01/25 02:09:36;;;;;;;;;47.60;41.20;;;;;6.39;64.07;102909.31;2102658;28;46641;-64
2023/01/25 02:10:38;;;;;;;;;48.50;39.00;;;;;6.37;64.12;102906.63;2092599;28;46410;-64
2023/01/25 02:11:39;;;;;;;;;57.20;46.40;;;;;6.38;63.85;102910.16;2070115;27;46978;-63
2023/01/25 02:12:41;;;;;;;;;51.00;43.80;;;;;6.37;64.01;102913.66;2070662;28;45823;-63
2023/01/25 02:13:41;;;;;;;;;54.00;40.00;;;;;6.37;63.97;102905.72;2078281;28;46772;-63
2023/01/25 02:14:48;;;;;;;;;57.50;43.25;;;;;6.37;63.99;102911.91;2083022;27;46744;-64
2023/01/25 02:15:50;;;;;;;;;54.40;44.80;;;;;6.37;63.87;102909.28;2062401;28;46334;-64
2023/01/25 02:16:50;;;;;;;;;49.40;38.60;;;;;6.36;64.29;102907.47;2076864;27;46566;-64
2023/01/25 02:17:51;;;;;;;;;51.75;40.75;;;;;6.36;64.08;102911.84;2078791;27;46500;-63
2023/01/25 02:18:55;;;;;;;;;53.00;41.25;;;;;6.34;64.06;102908.25;2112505;27;46882;-63
2023/01/25 02:20:13;;;;;;;;;56.60;45.60;;;;;6.35;64.15;102910.03;2110440;27;46589;-64
2023/01/25 02:21:13;;;;;;;;;52.60;43.80;;;;;6.34;64.14;102910.88;2067603;27;46412;-62
2023/01/25 02:22:19;;;;;;;;;43.50;38.00;;;;;6.32;63.79;102908.22;2070513;28;47186;-63
2023/01/25 02:23:32;;;;;;;;;56.40;43.80;;;;;6.34;64.16;102910.88;2077015;27;46581;-63
2023/01/25 02:24:34;;;;;;;;;54.60;46.20;;;;;6.34;64.19;102909.16;2079118;27;46446;-63
2023/01/25 02:25:34;;;;;;;;;50.60;41.00;;;;;6.34;64.52;102909.16;2078820;28;47003;-64
2023/01/25 02:26:35;;;;;;;;;57.75;47.25;;;;;6.34;64.00;102916.16;2104171;27;46817;-64
2023/01/25 02:27:40;;;;;;;;;53.75;43.25;;;;;6.34;64.20;102910.88;2111371;27;45315;-63
2023/01/25 02:28:49;;;;;;;;;57.40;46.20;;;;;6.34;63.91;102911.78;2090328;28;46544;-64
2023/01/25 02:29:49;;;;;;;;;58.20;43.40;;;;;6.34;64.03;102900.34;2080037;28;46462;-63
2023/01/25 02:30:50;;;;;;;;;57.00;45.25;;;;;6.34;64.12;102909.16;2089346;28;46685;-62
2023/01/25 02:31:58;;;;;;;;;52.00;43.00;;;;;6.33;63.92;102912.63;2078589;28;46413;-62
2023/01/25 02:32:58;;;;;;;;;53.40;43.20;;;;;6.33;64.15;102914.38;2065352;28;46562;-63
2023/01/25 02:33:59;;;;;;;;;55.00;43.75;;;;;6.32;64.23;102909.94;2066003;28;46357;-63
2023/01/25 02:34:59;;;;;;;;;53.00;43.25;;;;;6.32;64.27;102907.31;2113523;27;46291;-63
2023/01/25 02:36:00;;;;;;;;;56.25;42.75;;;;;6.32;64.10;102909.94;2111549;27;46215;-62
2023/01/25 02:37:00;;;;;;;;;53.75;42.25;;;;;6.32;64.30;102910.84;2104403;28;46437;-63
2023/01/25 02:38:01;;;;;;;;;48.50;39.00;;;;;6.32;64.61;102909.94;2100403;28;46111;-63
2023/01/25 02:39:07;;;;;;;;;49.75;41.00;;;;;6.32;64.37;102917.88;2077521;27;46596;-63
2023/01/25 02:40:08;;;;;;;;;51.00;43.20;;;;;6.31;64.11;102913.44;2113469;27;46464;-62
2023/01/25 02:41:17;;;;;;;;;51.20;42.60;;;;;6.32;64.21;102920.50;2083670;27;46403;-62
2023/01/25 02:42:17;;;;;;;;;59.40;47.60;;;;;6.32;64.53;102916.13;2062993;28;46522;-63
2023/01/25 02:43:18;;;;;;;;;45.75;41.25;;;;;6.32;64.24;102907.31;2070463;28;46222;-64
2023/01/25 02:44:28;;;;;;;;;56.75;45.25;;;;;6.33;64.28;102917.91;2061652;28;46310;-63
2023/01/25 02:45:29;;;;;;;;;40.00;37.00;;;;;6.32;64.28;102913.47;2054667;28;46382;-63
2023/01/25 02:46:33;;;;;;;;;57.80;45.80;;;;;6.32;64.25;102913.47;2061946;28;46525;-62
2023/01/25 02:47:33;;;;;;;;;53.40;45.40;;;;;6.32;64.51;102915.22;2066068;27;46602;-64
2023/01/25 02:48:33;;;;;;;;;45.75;40.25;;;;;6.30;64.79;102912.56;2070323;28;46324;-62
2023/01/25 02:49:35;;;;;;;;;58.00;45.00;;;;;6.30;64.33;102917.81;2070477;28;46906;-64
2023/01/25 02:50:36;;;;;;;;;50.20;41.00;;;;;6.30;64.62;102911.66;2070388;27;46812;-63
2023/01/25 02:51:42;;;;;;;;;47.00;42.25;;;;;6.30;64.67;102915.19;2070401;27;46564;-63
2023/01/25 02:52:43;;;;;;;;;53.80;41.40;;;;;6.31;64.59;102910.81;2063751;28;46207;-65
2023/01/25 02:53:43;;;;;;;;;53.00;42.25;;;;;6.31;64.92;102909.06;2057507;28;46503;-63
2023/01/25 02:54:44;;;;;;;;;50.25;41.75;;;;;6.32;64.38;102908.22;2062392;28;45558;-63
2023/01/25 02:55:44;;;;;;;;;57.40;45.40;;;;;6.32;64.92;102904.69;2064822;28;46677;-63
2023/01/25 02:56:45;;;;;;;;;53.00;43.75;;;;;6.32;64.66;102902.03;2062320;28;46282;-63
2023/01/25 02:57:45;;;;;;;;;47.50;42.25;;;;;6.32;64.70;102899.41;2065080;28;45926;-63
2023/01/25 02:58:46;;;;;;;;;54.75;44.75;;;;;6.31;64.86;102909.06;2066760;28;46217;-63
2023/01/25 02:59:46;;;;;;;;;51.25;42.00;;;;;6.32;64.76;102902.94;2061752;28;46593;-64
2023/01/25 03:00:46;;;;;;;;;53.00;45.00;;;;;6.32;64.75;102902.94;2062488;28;46686;-63
2023/01/25 03:01:48;;;;;;;;;54.00;43.25;;;;;6.32;64.05;102897.66;2066618;28;46636;-63
2023/01/25 03:02:48;;;;;;;;;47.00;39.20;;;;;6.32;64.64;102902.94;2070131;28;46489;-63
2023/01/25 03:03:48;;;;;;;;;53.00;45.00;;;;;6.32;64.69;102902.03;2076073;27;44963;-63
2023/01/25 03:04:50;;;;;;;;;58.00;46.25;;;;;6.30;64.62;102902.00;2069422;27;46552;-63
2023/01/25 03:05:50;;;;;;;;;54.00;44.80;;;;;6.31;64.53;102900.25;2069253;28;46879;-63
2023/01/25 03:06:50;;;;;;;;;53.75;43.25;;;;;6.31;64.37;102898.50;2068218;27;46355;-63
2023/01/25 03:07:51;;;;;;;;;55.50;43.00;;;;;6.29;64.56;102894.94;2068855;28;46587;-63
2023/01/25 03:08:51;;;;;;;;;53.25;41.25;;;;;6.29;64.68;102894.94;2070311;27;46047;-63
2023/01/25 03:09:51;;;;;;;;;51.50;43.00;;;;;6.29;64.92;102900.22;2068727;28;45940;-63
2023/01/25 03:10:56;;;;;;;;;51.25;42.75;;;;;6.29;64.65;102899.31;2062268;28;46985;-63
2023/01/25 03:11:56;;;;;;;;;56.20;46.40;;;;;6.28;64.71;102898.44;2067372;28;46407;-62
2023/01/25 03:12:56;;;;;;;;;55.25;43.00;;;;;6.29;64.63;102899.31;2070384;28;46250;-62
2023/01/25 03:13:56;;;;;;;;;59.50;46.50;;;;;6.28;64.94;102900.16;2070038;28;46629;-64
2023/01/25 03:14:57;;;;;;;;;51.50;42.00;;;;;6.27;64.88;102904.56;2069804;28;46536;-63
2023/01/25 03:16:00;;;;;;;;;51.00;40.25;;;;;6.26;64.85;102902.75;2070822;28;46715;-62
2023/01/25 03:17:00;;;;;;;;;46.20;41.40;;;;;6.25;65.02;102895.72;2070218;27;46928;-63
2023/01/25 03:18:00;;;;;;;;;56.00;46.50;;;;;6.24;65.17;102896.56;2070889;28;46601;-62
2023/01/25 03:19:01;;;;;;;;;54.75;43.75;;;;;6.24;64.80;102898.28;2070319;28;46558;-64
2023/01/25 03:20:01;;;;;;;;;51.75;43.00;;;;;6.22;65.12;102897.31;2094693;28;46368;-63
2023/01/25 03:21:15;;;;;;;;;52.25;43.25;;;;;6.21;65.07;102896.44;2095115;28;46265;-63
2023/01/25 03:22:15;;;;;;;;;56.20;41.40;;;;;6.19;65.18;102898.13;2070611;28;46945;-63
2023/01/25 03:23:16;;;;;;;;;60.50;45.00;;;;;6.19;64.81;102899.03;2070533;28;46601;-63
2023/01/25 03:24:16;;;;;;;;;58.50;43.75;;;;;6.19;65.22;102901.66;2070289;28;45202;-63
2023/01/25 03:25:16;;;;;;;;;51.00;43.25;;;;;6.18;65.28;102898.97;2070318;28;46929;-62
2023/01/25 03:26:19;;;;;;;;;50.50;42.00;;;;;6.17;65.14;102905.09;2069413;27;46641;-64
2023/01/25 03:27:19;;;;;;;;;55.00;44.60;;;;;6.17;65.24;102902.47;2069792;28;46503;-63
2023/01/25 03:28:20;;;;;;;;;56.50;45.75;;;;;6.17;65.44;102907.75;2070523;27;45050;-63
2023/01/25 03:29:20;;;;;;;;;50.75;44.25;;;;;6.16;65.32;102911.22;2069941;27;46822;-64
2023/01/25 03:30:20;;;;;;;;;54.75;44.75;;;;;6.16;65.74;102906.84;2070379;28;46208;-64
2023/01/25 03:31:21;;;;;;;;;55.75;45.50;;;;;6.16;65.70;102906.84;2061478;28;46370;-63
2023/01/25 03:32:21;;;;;;;;;54.75;43.00;;;;;6.17;65.48;102899.84;2061102;28;46457;-63
2023/01/25 03:33:22;;;;;;;;;56.25;45.75;;;;;6.16;65.50;102901.56;2063251;28;46744;-63
2023/01/25 03:34:22;;;;;;;;;57.75;46.00;;;;;6.16;65.69;102901.56;2066701;28;46174;-63
2023/01/25 03:35:22;;;;;;;;;36.00;34.75;;;;;6.16;65.53;102900.69;2069856;28;46652;-63
2023/01/25 03:36:23;;;;;;;;;15.75;4.00;;;;;6.16;65.99;102908.59;2069940;28;46852;-63
2023/01/25 03:37:28;;;;;;;;;56.50;46.25;;;;;6.16;65.83;102900.69;2070280;28;46370;-62
2023/01/25 03:38:29;;;;;;;;;52.60;43.40;;;;;6.15;65.58;102898.91;2065687;28;46800;-62
2023/01/25 03:39:30;;;;;;;;;58.80;47.60;;;;;6.13;65.71;102900.59;2069049;28;46454;-63
2023/01/25 03:40:30;;;;;;;;;58.75;47.75;;;;;6.12;65.71;102901.44;2094729;28;46183;-62
2023/01/25 03:41:30;;;;;;;;;57.75;45.75;;;;;6.13;65.81;102895.31;2095567;28;45858;-62
2023/01/25 03:42:31;;;;;;;;;61.50;49.00;;;;;6.12;65.69;102904.06;2095246;28;46290;-62
2023/01/25 03:43:31;;;;;;;;;59.75;47.25;;;;;6.11;65.43;102897.91;2094844;28;46687;-62
2023/01/25 03:44:31;;;;;;;;;54.25;42.75;;;;;6.10;65.94;102895.22;2094863;28;46523;-62
2023/01/25 03:45:32;;;;;;;;;54.75;47.00;;;;;6.11;65.77;102897.03;2094186;28;46547;-63
2023/01/25 03:46:32;;;;;;;;;60.00;48.50;;;;;6.11;66.28;102897.03;2103272;28;46704;-62
2023/01/25 03:47:32;;;;;;;;;55.75;43.00;;;;;6.11;66.08;102892.63;2100894;28;46781;-63
2023/01/25 03:48:33;;;;;;;;;58.50;46.00;;;;;6.13;65.89;102890.06;2095039;28;46251;-63
2023/01/25 03:49:33;;;;;;;;;52.50;42.25;;;;;6.12;65.98;102890.91;2094842;28;46207;-64
2023/01/25 03:50:34;;;;;;;;;58.25;46.00;;;;;6.11;66.27;102890.00;2095047;28;45639;-62
2023/01/25 03:51:34;;;;;;;;;59.75;47.75;;;;;6.11;66.33;102887.38;2095089;28;46552;-63
2023/01/25 03:53:28;;;;;;;;;59.50;47.00;;;;;6.12;66.08;102890.91;2095178;28;47070;-63
2023/01/25 03:54:29;;;;;;;;;58.80;44.40;;;;;6.13;66.32;102893.59;2059270;28;46460;-62
2023/01/25 03:55:29;;;;;;;;;58.50;47.00;;;;;6.13;66.40;102890.06;2062367;28;45910;-62
2023/01/25 03:56:30;;;;;;;;;60.00;48.00;;;;;6.14;66.15;102891.84;2061509;28;46570;-63
2023/01/25 03:57:30;;;;;;;;;57.75;47.50;;;;;6.13;66.01;102885.66;2057352;28;46124;-63
2023/01/25 03:58:30;;;;;;;;;56.50;46.75;;;;;6.14;65.93;102892.72;2054022;28;46222;-62
2023/01/25 03:59:30;;;;;;;;;60.00;47.50;;;;;6.14;66.68;102882.19;2054122;28;45796;-63
2023/01/25 04:00:31;;;;;;;;;58.00;46.00;;;;;6.14;66.46;102891.84;2054223;28;46299;-63
2023/01/25 04:01:31;;;;;;;;;53.50;43.50;;;;;6.15;66.31;102878.69;2045997;28;46309;-63
2023/01/25 04:02:32;;;;;;;;;53.75;43.50;;;;;6.15;66.51;102883.06;2051808;28;46276;-63
2023/01/25 04:03:33;;;;;;;;;61.50;48.00;;;;;6.13;66.30;102880.41;2062153;28;46152;-63
2023/01/25 04:04:34;;;;;;;;;54.60;44.20;;;;;6.14;66.27;102886.56;2061727;28;46476;-63
2023/01/25 04:05:34;;;;;;;;;55.20;43.40;;;;;6.14;66.17;102886.56;2061700;28;46490;-62
2023/01/25 04:06:35;;;;;;;;;57.50;46.50;;;;;6.12;66.69;102880.34;2053741;28;46762;-63
2023/01/25 04:07:35;;;;;;;;;53.25;44.75;;;;;6.13;66.68;102882.13;2062181;28;46229;-64
2023/01/25 04:08:36;;;;;;;;;48.25;40.50;;;;;6.13;66.37;102884.78;2062566;28;46042;-63
2023/01/25 04:09:36;;;;;;;;;60.00;47.50;;;;;6.14;66.34;102886.56;2062013;28;46836;-63
2023/01/25 04:10:36;;;;;;;;;60.25;46.50;;;;;6.13;66.34;102882.13;2062600;28;46790;-62
2023/01/25 04:11:37;;;;;;;;;57.50;45.00;;;;;6.12;66.53;102885.63;2060210;28;45947;-62
2023/01/25 04:12:37;;;;;;;;;55.00;44.50;;;;;6.11;66.23;102878.56;2067943;28;46531;-62
2023/01/25 04:13:38;;;;;;;;;51.25;42.25;;;;;6.13;66.96;102887.41;2075144;28;46764;-63
2023/01/25 04:14:39;;;;;;;;;56.80;46.00;;;;;6.11;66.75;102878.56;2078208;28;45575;-63
2023/01/25 04:15:39;;;;;;;;;53.75;43.50;;;;;6.13;66.80;102882.13;2086408;28;46640;-63
2023/01/25 04:16:39;;;;;;;;;57.25;44.25;;;;;6.13;66.98;102890.06;2072085;28;46174;-62
2023/01/25 04:17:39;;;;;;;;;49.25;42.50;;;;;6.11;66.73;102881.19;2071529;28;46284;-64
2023/01/25 04:18:40;;;;;;;;;55.00;43.50;;;;;6.11;66.38;102884.72;2080285;28;46368;-63
2023/01/25 04:19:40;;;;;;;;;61.75;48.75;;;;;6.10;66.50;102885.59;2079877;28;45913;-63
2023/01/25 04:20:41;;;;;;;;;57.00;45.00;;;;;6.09;66.70;102883.75;2079629;28;46250;-62
2023/01/25 04:21:41;;;;;;;;;46.50;40.75;;;;;6.08;66.65;102876.72;2080096;28;46131;-62
2023/01/25 04:22:41;;;;;;;;;61.75;48.50;;;;;6.09;66.63;102883.75;2079750;28;46300;-63
2023/01/25 04:23:42;;;;;;;;;54.50;41.50;;;;;6.09;66.62;102882.88;2079879;28;46450;-62
2023/01/25 04:24:42;;;;;;;;;56.50;46.50;;;;;6.10;66.83;102888.22;2080138;28;45563;-62
2023/01/25 04:25:42;;;;;;;;;56.75;46.00;;;;;6.09;66.50;102883.75;2079756;28;46397;-63
2023/01/25 04:26:43;;;;;;;;;55.25;45.00;;;;;6.08;66.23;102887.25;2079441;28;45614;-63
2023/01/25 04:27:43;;;;;;;;;49.50;42.25;;;;;6.08;66.47;102889.00;2079855;28;46962;-62
2023/01/25 04:28:43;;;;;;;;;59.50;48.50;;;;;6.07;66.47;102876.66;2079677;28;46354;-62
2023/01/25 04:29:44;;;;;;;;;53.50;43.25;;;;;6.07;66.53;102888.09;2083479;28;46215;-64
2023/01/25 04:30:44;;;;;;;;;56.25;46.00;;;;;6.07;66.57;102882.81;2088059;28;46649;-63
2023/01/25 04:31:44;;;;;;;;;53.00;45.25;;;;;6.05;66.64;102883.63;2083965;28;46635;-62
2023/01/25 04:32:45;;;;;;;;;56.00;46.75;;;;;6.05;66.61;102891.53;2073745;28;46573;-62
2023/01/25 04:33:46;;;;;;;;;54.75;42.25;;;;;6.05;66.87;102886.28;2062901;28;46588;-62
2023/01/25 04:34:46;;;;;;;;;57.25;45.50;;;;;6.04;66.58;102881.84;2068238;28;46439;-62
2023/01/25 04:35:46;;;;;;;;;56.25;42.25;;;;;6.05;66.56;102891.53;2062353;28;46106;-63
2023/01/25 04:36:47;;;;;;;;;42.25;36.00;;;;;6.04;66.68;102888.00;2062721;28;46064;-62
2023/01/25 04:37:55;;;;;;;;;61.00;46.75;;;;;6.03;66.68;102887.97;2070842;27;46691;-62
2023/01/25 04:38:55;;;;;;;;;52.80;44.00;;;;;6.01;66.80;102881.75;2064132;28;47066;-62
2023/01/25 04:39:55;;;;;;;;;54.25;43.75;;;;;6.00;67.15;102880.88;2071229;28;46754;-62
2023/01/25 04:40:56;;;;;;;;;59.75;46.25;;;;;5.99;66.80;102881.72;2070639;28;46850;-62
2023/01/25 04:41:56;;;;;;;;;54.25;44.25;;;;;5.99;66.75;102873.81;2071518;28;46122;-61
2023/01/25 04:42:57;;;;;;;;;54.00;44.00;;;;;5.99;66.90;102879.06;2070990;28;46300;-63
2023/01/25 04:43:57;;;;;;;;;46.50;41.00;;;;;5.99;67.07;102881.72;2070923;27;46383;-63
2023/01/25 04:44:57;;;;;;;;;55.75;45.00;;;;;5.99;67.06;102881.72;2078688;28;46359;-63